Aviation Digital Data Service (ADDS)

Output produced by METARs form (1811 UTC 19 August 2019)
found at http://www.aviationweather.gov/metar/data/
 
Forecast for: OERK (RIYADH/KING KHAL, SA)
Text: TAF OERK 191700Z 1918/2024 VRB03KT 7000 NSC
Forecast period: 1800 UTC 19 August 2019 to 0800 UTC 20 August 2019
Forecast type: FROM: standard forecast or significant change
Winds: variable direction winds at 3 MPH (3 knots; 1.5 m/s)
Visibility: 4 miles (7 km)
Ceiling: unknown
Clouds: missing
Weather: no significant weather forecast for this period
Text: BECMG 2008/2010 02014KT
Forecast period: 0800 UTC 20 August 2019 to 0000 UTC 21 August 2019
Forecast type: BECOMING: Conditions expected to become as follows by 1000 UTC 20 August 2019
Winds: from the NNE (20 degrees) at 16 MPH (14 knots; 7.2 m/s)
Visibility: 4 miles (7 km)
Ceiling: unknown
Clouds: missing
Weather: no significant weather forecast for this period